sensor_id;sensor_type;location;lat;lon;timestamp;pressure;altitude;pressure_sealevel;temperature;humidity
24610;BME280;77159;47.890;11.694;2024-03-25T00:01:15;92993.50;;;12.17;69.32
24610;BME280;77159;47.890;11.694;2024-03-25T00:03:42;93000.44;;;12.15;69.58
24610;BME280;77159;47.890;11.694;2024-03-25T00:06:07;92991.13;;;12.16;69.51
24610;BME280;77159;47.890;11.694;2024-03-25T00:08:34;92994.63;;;12.16;69.55
24610;BME280;77159;47.890;11.694;2024-03-25T00:11:00;92999.28;;;12.16;69.42
24610;BME280;77159;47.890;11.694;2024-03-25T00:13:26;92991.13;;;12.16;69.54
24610;BME280;77159;47.890;11.694;2024-03-25T00:15:52;92995.00;;;12.15;69.67
24610;BME280;77159;47.890;11.694;2024-03-25T00:18:19;92995.00;;;12.15;69.82
24610;BME280;77159;47.890;11.694;2024-03-25T00:20:45;93005.88;;;12.15;69.94
24610;BME280;77159;47.890;11.694;2024-03-25T00:23:11;93002.78;;;12.16;69.63
24610;BME280;77159;47.890;11.694;2024-03-25T00:25:37;92996.56;;;12.16;69.39
24610;BME280;77159;47.890;11.694;2024-03-25T00:28:04;93002.78;;;12.16;69.39
24610;BME280;77159;47.890;11.694;2024-03-25T00:30:30;92997.34;;;12.16;69.41
24610;BME280;77159;47.890;11.694;2024-03-25T00:32:56;92998.16;;;12.17;69.15
24610;BME280;77159;47.890;11.694;2024-03-25T00:35:22;93000.06;;;12.16;69.21
24610;BME280;77159;47.890;11.694;2024-03-25T00:37:49;92996.56;;;12.16;69.13
24610;BME280;77159;47.890;11.694;2024-03-25T00:40:15;93002.00;;;12.16;69.11
24610;BME280;77159;47.890;11.694;2024-03-25T00:42:41;92998.16;;;12.17;69.01
24610;BME280;77159;47.890;11.694;2024-03-25T00:45:08;92992.72;;;12.17;69.25
24610;BME280;77159;47.890;11.694;2024-03-25T00:47:35;92991.56;;;12.18;69.02
24610;BME280;77159;47.890;11.694;2024-03-25T00:50:01;93002.84;;;12.20;68.22
24610;BME280;77159;47.890;11.694;2024-03-25T00:52:28;92994.28;;;12.18;68.79
24610;BME280;77159;47.890;11.694;2024-03-25T00:54:54;92997.41;;;12.20;68.56
24610;BME280;77159;47.890;11.694;2024-03-25T00:57:21;92989.25;;;12.20;68.65
24610;BME280;77159;47.890;11.694;2024-03-25T00:59:47;92990.84;;;12.21;68.79
24610;BME280;77159;47.890;11.694;2024-03-25T01:02:13;92978.81;;;12.22;68.50
24610;BME280;77159;47.890;11.694;2024-03-25T01:04:39;92991.25;;;12.23;68.47
24610;BME280;77159;47.890;11.694;2024-03-25T01:07:05;92986.63;;;12.23;68.42
24610;BME280;77159;47.890;11.694;2024-03-25T01:09:31;92986.63;;;12.23;68.36
24610;BME280;77159;47.890;11.694;2024-03-25T01:11:58;92984.69;;;12.24;68.28
24610;BME280;77159;47.890;11.694;2024-03-25T01:14:23;92985.81;;;12.23;68.15
24610;BME280;77159;47.890;11.694;2024-03-25T01:16:50;92978.81;;;12.22;68.70
24610;BME280;77159;47.890;11.694;2024-03-25T01:19:16;92977.25;;;12.21;68.02
24610;BME280;77159;47.890;11.694;2024-03-25T01:21:42;92977.97;;;12.18;68.04
24610;BME280;77159;47.890;11.694;2024-03-25T01:24:08;92977.19;;;12.17;67.67
24610;BME280;77159;47.890;11.694;2024-03-25T01:26:35;92982.25;;;12.19;67.57
24610;BME280;77159;47.890;11.694;2024-03-25T01:29:00;92984.56;;;12.17;67.49
24610;BME280;77159;47.890;11.694;2024-03-25T01:31:27;92977.13;;;12.14;67.65
24610;BME280;77159;47.890;11.694;2024-03-25T01:33:53;92984.84;;;12.11;67.66
24610;BME280;77159;47.890;11.694;2024-03-25T01:36:19;92969.28;;;12.12;68.05
24610;BME280;77159;47.890;11.694;2024-03-25T01:38:45;92982.91;;;12.12;67.45
24610;BME280;77159;47.890;11.694;2024-03-25T01:41:13;92983.28;;;12.10;67.68
24610;BME280;77159;47.890;11.694;2024-03-25T01:43:41;92988.72;;;12.10;67.76
24610;BME280;77159;47.890;11.694;2024-03-25T01:46:07;92985.53;;;12.08;67.83
24610;BME280;77159;47.890;11.694;2024-03-25T01:48:34;92981.25;;;12.07;67.24
24610;BME280;77159;47.890;11.694;2024-03-25T01:51:00;92980.81;;;12.05;67.11
24610;BME280;77159;47.890;11.694;2024-03-25T01:53:28;92984.69;;;12.04;66.73
24610;BME280;77159;47.890;11.694;2024-03-25T01:55:56;92978.81;;;12.02;66.94
24610;BME280;77159;47.890;11.694;2024-03-25T01:58:23;92972.94;;;12.00;66.79
24610;BME280;77159;47.890;11.694;2024-03-25T02:00:53;92980.69;;;11.98;67.13
24610;BME280;77159;47.890;11.694;2024-03-25T02:03:20;92982.97;;;11.96;67.36
24610;BME280;77159;47.890;11.694;2024-03-25T02:05:46;92970.53;;;11.95;67.28
24610;BME280;77159;47.890;11.694;2024-03-25T02:08:12;92981.41;;;11.95;67.89
24610;BME280;77159;47.890;11.694;2024-03-25T02:10:39;92982.13;;;11.92;67.65
24610;BME280;77159;47.890;11.694;2024-03-25T02:13:06;92972.41;;;11.91;67.62
24610;BME280;77159;47.890;11.694;2024-03-25T02:15:33;92979.34;;;11.88;67.72
24610;BME280;77159;47.890;11.694;2024-03-25T02:18:01;92991.34;;;11.87;67.84
24610;BME280;77159;47.890;11.694;2024-03-25T02:20:27;92986.59;;;11.84;68.33
24610;BME280;77159;47.890;11.694;2024-03-25T02:22:54;92981.50;;;11.83;68.08
24610;BME280;77159;47.890;11.694;2024-03-25T02:25:22;92976.44;;;11.81;68.47
24610;BME280;77159;47.890;11.694;2024-03-25T02:27:48;92971.78;;;11.82;68.51
24610;BME280;77159;47.890;11.694;2024-03-25T02:30:14;92982.66;;;11.82;68.50
24610;BME280;77159;47.890;11.694;2024-03-25T02:32:41;92971.78;;;11.82;68.94
24610;BME280;77159;47.890;11.694;2024-03-25T02:35:10;92971.41;;;11.83;68.68
24610;BME280;77159;47.890;11.694;2024-03-25T02:37:38;92977.63;;;11.84;68.93
24610;BME280;77159;47.890;11.694;2024-03-25T02:40:06;92981.16;;;11.84;68.76
24610;BME280;77159;47.890;11.694;2024-03-25T02:42:33;92994.41;;;11.86;69.18
24610;BME280;77159;47.890;11.694;2024-03-25T02:45:00;92988.97;;;11.86;68.77
24610;BME280;77159;47.890;11.694;2024-03-25T02:47:26;92988.19;;;11.85;68.82
24610;BME280;77159;47.890;11.694;2024-03-25T02:49:52;92992.16;;;11.88;68.92
24610;BME280;77159;47.890;11.694;2024-03-25T02:52:19;92985.91;;;11.87;68.86
24610;BME280;77159;47.890;11.694;2024-03-25T02:54:45;92983.53;;;11.86;68.88
24610;BME280;77159;47.890;11.694;2024-03-25T02:57:11;92986.25;;;11.86;68.89
24610;BME280;77159;47.890;11.694;2024-03-25T02:59:37;92995.66;;;11.88;68.92
24610;BME280;77159;47.890;11.694;2024-03-25T03:02:04;92982.84;;;11.89;68.98
24610;BME280;77159;47.890;11.694;2024-03-25T03:04:30;92991.44;;;11.91;69.07
24610;BME280;77159;47.890;11.694;2024-03-25T03:06:56;92998.44;;;11.92;69.26
24610;BME280;77159;47.890;11.694;2024-03-25T03:09:23;92994.56;;;11.93;69.15
24610;BME280;77159;47.890;11.694;2024-03-25T03:11:49;92994.56;;;11.93;69.25
24610;BME280;77159;47.890;11.694;2024-03-25T03:14:15;92996.16;;;11.94;69.44
24610;BME280;77159;47.890;11.694;2024-03-25T03:16:41;92991.50;;;11.95;69.03
24610;BME280;77159;47.890;11.694;2024-03-25T03:19:08;92993.06;;;11.96;69.14
24610;BME280;77159;47.890;11.694;2024-03-25T03:21:34;93003.16;;;11.95;69.16
24610;BME280;77159;47.890;11.694;2024-03-25T03:24:00;93000.06;;;11.97;69.39
24610;BME280;77159;47.890;11.694;2024-03-25T03:26:26;93003.22;;;11.99;69.47
24610;BME280;77159;47.890;11.694;2024-03-25T03:28:53;93004.78;;;12.00;69.19
24610;BME280;77159;47.890;11.694;2024-03-25T03:31:19;93007.16;;;12.01;69.05
24610;BME280;77159;47.890;11.694;2024-03-25T03:33:47;93001.03;;;12.04;69.07
24610;BME280;77159;47.890;11.694;2024-03-25T03:36:15;93004.16;;;12.06;69.08
24610;BME280;77159;47.890;11.694;2024-03-25T03:38:41;92999.16;;;12.08;68.64
24610;BME280;77159;47.890;11.694;2024-03-25T03:41:07;92996.44;;;12.08;68.89
24610;BME280;77159;47.890;11.694;2024-03-25T03:43:33;92994.88;;;12.07;68.59
24610;BME280;77159;47.890;11.694;2024-03-25T03:45:59;92997.59;;;12.07;68.40
24610;BME280;77159;47.890;11.694;2024-03-25T03:48:25;92996.34;;;12.05;68.57
24610;BME280;77159;47.890;11.694;2024-03-25T03:50:51;92997.84;;;12.02;68.66
24610;BME280;77159;47.890;11.694;2024-03-25T03:53:18;92986.97;;;12.02;68.21
24610;BME280;77159;47.890;11.694;2024-03-25T03:55:53;92993.97;;;12.03;68.14
24610;BME280;77159;47.890;11.694;2024-03-25T03:58:19;93001.72;;;12.01;68.18
24610;BME280;77159;47.890;11.694;2024-03-25T04:00:45;93002.84;;;12.00;68.10
24610;BME280;77159;47.890;11.694;2024-03-25T04:03:11;93004.78;;;12.00;68.22
24610;BME280;77159;47.890;11.694;2024-03-25T04:05:37;93005.56;;;12.00;68.02
24610;BME280;77159;47.890;11.694;2024-03-25T04:08:05;93004.44;;;12.01;67.96
24610;BME280;77159;47.890;11.694;2024-03-25T04:10:31;93001.28;;;11.99;67.65
24610;BME280;77159;47.890;11.694;2024-03-25T04:12:57;93009.44;;;11.99;68.01
24610;BME280;77159;47.890;11.694;2024-03-25T04:15:23;93008.66;;;11.99;68.17
24610;BME280;77159;47.890;11.694;2024-03-25T04:17:50;93010.59;;;11.98;68.46
24610;BME280;77159;47.890;11.694;2024-03-25T04:20:16;93013.31;;;11.98;68.00
24610;BME280;77159;47.890;11.694;2024-03-25T04:22:42;93006.28;;;11.97;68.38
24610;BME280;77159;47.890;11.694;2024-03-25T04:25:08;93011.00;;;12.00;67.92
24610;BME280;77159;47.890;11.694;2024-03-25T04:27:37;93007.16;;;12.01;68.37
24610;BME280;77159;47.890;11.694;2024-03-25T04:30:05;93006.03;;;12.02;68.19
24610;BME280;77159;47.890;11.694;2024-03-25T04:32:32;93006.47;;;12.04;68.00
24610;BME280;77159;47.890;11.694;2024-03-25T04:34:59;93004.88;;;12.03;67.86
24610;BME280;77159;47.890;11.694;2024-03-25T04:37:25;93010.69;;;12.02;67.41
24610;BME280;77159;47.890;11.694;2024-03-25T04:39:51;93014.88;;;11.99;67.57
24610;BME280;77159;47.890;11.694;2024-03-25T04:42:17;93012.16;;;11.99;67.53
24610;BME280;77159;47.890;11.694;2024-03-25T04:44:43;93014.44;;;11.97;67.62
24610;BME280;77159;47.890;11.694;2024-03-25T04:47:10;93007.03;;;11.94;67.78
24610;BME280;77159;47.890;11.694;2024-03-25T04:49:36;93010.88;;;11.93;67.43
24610;BME280;77159;47.890;11.694;2024-03-25T04:52:01;93010.88;;;11.93;67.44
24610;BME280;77159;47.890;11.694;2024-03-25T04:54:28;93012.03;;;11.92;67.45
24610;BME280;77159;47.890;11.694;2024-03-25T04:56:54;93012.03;;;11.92;67.80
24610;BME280;77159;47.890;11.694;2024-03-25T04:59:21;93009.31;;;11.92;67.55
24610;BME280;77159;47.890;11.694;2024-03-25T05:01:48;93013.25;;;11.95;67.77
24610;BME280;77159;47.890;11.694;2024-03-25T05:04:14;93010.16;;;11.96;67.77
24610;BME280;77159;47.890;11.694;2024-03-25T05:06:40;93020.31;;;11.99;67.71
24610;BME280;77159;47.890;11.694;2024-03-25T05:09:06;93025.06;;;12.02;67.66
24610;BME280;77159;47.890;11.694;2024-03-25T05:11:32;93022.00;;;12.04;67.81
24610;BME280;77159;47.890;11.694;2024-03-25T05:13:58;93031.34;;;12.06;67.78
24610;BME280;77159;47.890;11.694;2024-03-25T05:16:25;93028.28;;;12.08;67.37
24610;BME280;77159;47.890;11.694;2024-03-25T05:18:51;93032.22;;;12.10;67.42
24610;BME280;77159;47.890;11.694;2024-03-25T05:21:17;93033.78;;;12.11;67.17
24610;BME280;77159;47.890;11.694;2024-03-25T05:23:43;93042.41;;;12.14;66.95
24610;BME280;77159;47.890;11.694;2024-03-25T05:26:09;93043.97;;;12.15;67.04
24610;BME280;77159;47.890;11.694;2024-03-25T05:28:35;93042.81;;;12.16;66.95
24610;BME280;77159;47.890;11.694;2024-03-25T05:31:05;93040.53;;;12.18;66.63
24610;BME280;77159;47.890;11.694;2024-03-25T05:33:31;93040.88;;;12.16;66.57
24610;BME280;77159;47.890;11.694;2024-03-25T05:35:58;93043.59;;;12.16;66.54
24610;BME280;77159;47.890;11.694;2024-03-25T05:38:24;93034.66;;;12.16;66.95
24610;BME280;77159;47.890;11.694;2024-03-25T05:40:50;93036.25;;;12.17;66.75
24610;BME280;77159;47.890;11.694;2024-03-25T05:43:16;93035.09;;;12.18;66.49
24610;BME280;77159;47.890;11.694;2024-03-25T05:45:50;93035.50;;;12.20;66.51
24610;BME280;77159;47.890;11.694;2024-03-25T05:48:16;93039.38;;;12.19;66.23
24610;BME280;77159;47.890;11.694;2024-03-25T05:50:43;93042.81;;;12.16;65.96
24610;BME280;77159;47.890;11.694;2024-03-25T05:53:09;93039.25;;;12.11;65.94
24610;BME280;77159;47.890;11.694;2024-03-25T05:55:35;93043.13;;;12.10;66.22
24610;BME280;77159;47.890;11.694;2024-03-25T05:58:01;93040.28;;;12.07;66.17
24610;BME280;77159;47.890;11.694;2024-03-25T06:00:28;93039.88;;;12.05;66.65
24610;BME280;77159;47.890;11.694;2024-03-25T06:02:54;93046.09;;;12.05;66.37
24610;BME280;77159;47.890;11.694;2024-03-25T06:05:20;93046.09;;;12.05;66.63
24610;BME280;77159;47.890;11.694;2024-03-25T06:07:46;93048.13;;;12.08;66.45
24610;BME280;77159;47.890;11.694;2024-03-25T06:10:13;93039.94;;;12.08;66.58
24610;BME280;77159;47.890;11.694;2024-03-25T06:12:39;93040.81;;;12.12;66.83
24610;BME280;77159;47.890;11.694;2024-03-25T06:15:07;93043.97;;;12.15;66.74
24610;BME280;77159;47.890;11.694;2024-03-25T06:17:33;93045.91;;;12.14;66.57
24610;BME280;77159;47.890;11.694;2024-03-25T06:19:59;93046.25;;;12.12;66.48
24610;BME280;77159;47.890;11.694;2024-03-25T06:22:25;93039.25;;;12.11;66.88
24610;BME280;77159;47.890;11.694;2024-03-25T06:24:51;93046.97;;;12.09;67.01
24610;BME280;77159;47.890;11.694;2024-03-25T06:27:19;93049.25;;;12.07;67.38
24610;BME280;77159;47.890;11.694;2024-03-25T06:29:45;93049.97;;;12.04;67.13
24610;BME280;77159;47.890;11.694;2024-03-25T06:32:12;93048.38;;;12.03;66.97
24610;BME280;77159;47.890;11.694;2024-03-25T06:34:56;93056.91;;;12.02;67.31
24610;BME280;77159;47.890;11.694;2024-03-25T06:37:26;93052.25;;;12.02;67.27
24610;BME280;77159;47.890;11.694;2024-03-25T06:39:52;93052.25;;;12.02;67.40
24610;BME280;77159;47.890;11.694;2024-03-25T06:42:19;93052.25;;;12.02;67.39
24610;BME280;77159;47.890;11.694;2024-03-25T06:44:45;93056.53;;;12.03;67.25
24610;BME280;77159;47.890;11.694;2024-03-25T06:47:15;93053.81;;;12.03;67.25
24610;BME280;77159;47.890;11.694;2024-03-25T06:49:41;93056.13;;;12.01;67.22
24610;BME280;77159;47.890;11.694;2024-03-25T06:52:07;93055.34;;;12.01;67.39
24610;BME280;77159;47.890;11.694;2024-03-25T06:54:34;93049.91;;;12.01;67.64
24610;BME280;77159;47.890;11.694;2024-03-25T06:57:00;93047.53;;;11.99;67.46
24610;BME280;77159;47.890;11.694;2024-03-25T06:59:28;93048.69;;;11.98;67.75
24610;BME280;77159;47.890;11.694;2024-03-25T07:02:01;93048.25;;;11.96;67.75
24610;BME280;77159;47.890;11.694;2024-03-25T07:04:27;93052.13;;;11.95;68.10
24610;BME280;77159;47.890;11.694;2024-03-25T07:06:53;93046.66;;;11.95;68.26
24610;BME280;77159;47.890;11.694;2024-03-25T07:09:19;93044.38;;;11.97;68.46
24610;BME280;77159;47.890;11.694;2024-03-25T07:11:46;93049.09;;;12.00;68.39
24610;BME280;77159;47.890;11.694;2024-03-25T07:14:12;93044.47;;;12.01;68.10
24610;BME280;77159;47.890;11.694;2024-03-25T07:16:39;93040.22;;;12.03;68.50
24610;BME280;77159;47.890;11.694;2024-03-25T07:19:05;93041.44;;;12.06;68.30
24610;BME280;77159;47.890;11.694;2024-03-25T07:21:31;93047.66;;;12.06;68.15
24610;BME280;77159;47.890;11.694;2024-03-25T07:23:57;93046.53;;;12.07;68.65
24610;BME280;77159;47.890;11.694;2024-03-25T07:26:23;93051.63;;;12.09;68.69
24610;BME280;77159;47.890;11.694;2024-03-25T07:28:49;93049.69;;;12.09;68.75
24610;BME280;77159;47.890;11.694;2024-03-25T07:31:15;93048.56;;;12.10;68.50
24610;BME280;77159;47.890;11.694;2024-03-25T07:33:42;93044.69;;;12.11;67.84
24610;BME280;77159;47.890;11.694;2024-03-25T07:36:08;93041.50;;;12.09;68.07
24610;BME280;77159;47.890;11.694;2024-03-25T07:38:34;93043.00;;;12.07;68.04
24610;BME280;77159;47.890;11.694;2024-03-25T07:41:03;93041.44;;;12.06;67.97
24610;BME280;77159;47.890;11.694;2024-03-25T07:43:30;93044.53;;;12.04;68.35
24610;BME280;77159;47.890;11.694;2024-03-25T07:45:56;93042.59;;;12.05;68.38
24610;BME280;77159;47.890;11.694;2024-03-25T07:48:22;93048.91;;;12.09;68.71
24610;BME280;77159;47.890;11.694;2024-03-25T07:50:49;93047.41;;;12.11;68.44
24610;BME280;77159;47.890;11.694;2024-03-25T07:53:15;93047.84;;;12.14;68.71
24610;BME280;77159;47.890;11.694;2024-03-25T07:55:41;93041.69;;;12.17;68.65
24610;BME280;77159;47.890;11.694;2024-03-25T07:58:07;93040.94;;;12.20;68.46
24610;BME280;77159;47.890;11.694;2024-03-25T08:00:33;93045.25;;;12.21;68.42
24610;BME280;77159;47.890;11.694;2024-03-25T08:03:00;93039.81;;;12.21;67.60
24610;BME280;77159;47.890;11.694;2024-03-25T08:05:26;93043.31;;;12.21;67.56
24610;BME280;77159;47.890;11.694;2024-03-25T08:07:53;93045.25;;;12.21;67.51
24610;BME280;77159;47.890;11.694;2024-03-25T08:10:19;93044.09;;;12.22;67.38
24610;BME280;77159;47.890;11.694;2024-03-25T08:12:45;93037.09;;;12.21;66.73
24610;BME280;77159;47.890;11.694;2024-03-25T08:15:11;93042.09;;;12.19;66.40
24610;BME280;77159;47.890;11.694;2024-03-25T08:17:38;93042.53;;;12.21;66.45
24610;BME280;77159;47.890;11.694;2024-03-25T08:20:06;93029.34;;;12.23;66.51
24610;BME280;77159;47.890;11.694;2024-03-25T08:22:32;93030.94;;;12.24;66.62
24610;BME280;77159;47.890;11.694;2024-03-25T08:24:58;93024.34;;;12.25;65.37
24610;BME280;77159;47.890;11.694;2024-03-25T08:27:24;93031.00;;;12.27;65.85
24610;BME280;77159;47.890;11.694;2024-03-25T08:29:50;93031.06;;;12.31;65.24
24610;BME280;77159;47.890;11.694;2024-03-25T08:32:19;93035.00;;;12.33;64.22
24610;BME280;77159;47.890;11.694;2024-03-25T08:34:45;93043.97;;;12.34;64.59
24610;BME280;77159;47.890;11.694;2024-03-25T08:37:11;93034.31;;;12.37;62.74
24610;BME280;77159;47.890;11.694;2024-03-25T08:39:37;93035.88;;;12.38;63.62
24610;BME280;77159;47.890;11.694;2024-03-25T08:42:04;93047.97;;;12.40;63.59
24610;BME280;77159;47.890;11.694;2024-03-25T08:44:30;93037.50;;;12.42;62.78
24610;BME280;77159;47.890;11.694;2024-03-25T08:46:56;93031.28;;;12.42;62.09
24610;BME280;77159;47.890;11.694;2024-03-25T08:49:22;93025.09;;;12.45;62.05
24610;BME280;77159;47.890;11.694;2024-03-25T08:51:48;93028.28;;;12.47;62.14
24610;BME280;77159;47.890;11.694;2024-03-25T08:54:14;93024.44;;;12.51;59.15
24610;BME280;77159;47.890;11.694;2024-03-25T08:56:40;93032.34;;;12.56;58.34
24610;BME280;77159;47.890;11.694;2024-03-25T08:59:06;93034.34;;;12.59;58.73
24610;BME280;77159;47.890;11.694;2024-03-25T09:01:35;93023.88;;;12.62;58.00
24610;BME280;77159;47.890;11.694;2024-03-25T09:04:01;93020.41;;;12.65;57.46
24610;BME280;77159;47.890;11.694;2024-03-25T09:06:27;93015.41;;;12.67;57.61
24610;BME280;77159;47.890;11.694;2024-03-25T09:08:54;93000.63;;;12.68;57.84
24610;BME280;77159;47.890;11.694;2024-03-25T09:11:39;93010.03;;;12.70;57.55
24610;BME280;77159;47.890;11.694;2024-03-25T09:14:05;93010.88;;;12.74;58.36
24610;BME280;77159;47.890;11.694;2024-03-25T09:16:32;93017.19;;;12.78;57.07
24610;BME280;77159;47.890;11.694;2024-03-25T09:18:58;93003.19;;;12.80;56.64
24610;BME280;77159;47.890;11.694;2024-03-25T09:21:24;93004.84;;;12.85;56.68
24610;BME280;77159;47.890;11.694;2024-03-25T09:23:50;92992.00;;;12.85;54.93
24610;BME280;77159;47.890;11.694;2024-03-25T09:26:16;92990.13;;;12.89;55.49
24610;BME280;77159;47.890;11.694;2024-03-25T09:28:42;92987.09;;;12.94;55.75
24610;BME280;77159;47.890;11.694;2024-03-25T09:31:09;92986.38;;;12.97;55.74
24610;BME280;77159;47.890;11.694;2024-03-25T09:33:34;92991.09;;;13.00;55.83
24610;BME280;77159;47.890;11.694;2024-03-25T09:36:01;92990.38;;;13.03;56.02
24610;BME280;77159;47.890;11.694;2024-03-25T09:38:27;92990.03;;;13.09;55.81
24610;BME280;77159;47.890;11.694;2024-03-25T09:40:53;92989.31;;;13.12;55.07
24610;BME280;77159;47.890;11.694;2024-03-25T09:43:25;92992.47;;;13.14;52.74
24610;BME280;77159;47.890;11.694;2024-03-25T09:45:54;92973.41;;;13.14;52.84
24610;BME280;77159;47.890;11.694;2024-03-25T09:48:23;92988.25;;;13.16;53.08
24610;BME280;77159;47.890;11.694;2024-03-25T09:50:49;92986.69;;;13.19;53.44
24610;BME280;77159;47.890;11.694;2024-03-25T09:53:16;92985.13;;;13.18;53.59
24610;BME280;77159;47.890;11.694;2024-03-25T09:55:42;92984.47;;;13.24;53.75
24610;BME280;77159;47.890;11.694;2024-03-25T09:58:08;92980.69;;;13.29;54.58
24610;BME280;77159;47.890;11.694;2024-03-25T10:00:35;92972.16;;;13.34;54.38
24610;BME280;77159;47.890;11.694;2024-03-25T10:03:01;92972.25;;;13.41;53.55
24610;BME280;77159;47.890;11.694;2024-03-25T10:05:28;92957.50;;;13.42;54.44
24610;BME280;77159;47.890;11.694;2024-03-25T10:07:54;92968.47;;;13.46;53.27
24610;BME280;77159;47.890;11.694;2024-03-25T10:10:20;92958.75;;;13.48;52.54
24610;BME280;77159;47.890;11.694;2024-03-25T10:12:46;92959.59;;;13.52;51.45
24610;BME280;77159;47.890;11.694;2024-03-25T10:15:16;92948.69;;;13.52;51.77
24610;BME280;77159;47.890;11.694;2024-03-25T10:17:42;92951.03;;;13.54;51.35
24610;BME280;77159;47.890;11.694;2024-03-25T10:20:13;92944.47;;;13.59;51.81
24610;BME280;77159;47.890;11.694;2024-03-25T10:22:42;92946.88;;;13.64;51.99
24610;BME280;77159;47.890;11.694;2024-03-25T10:25:22;92925.53;;;13.69;51.00
24610;BME280;77159;47.890;11.694;2024-03-25T10:27:56;92933.41;;;13.74;50.58
24610;BME280;77159;47.890;11.694;2024-03-25T10:30:23;92931.84;;;13.77;50.75
24610;BME280;77159;47.890;11.694;2024-03-25T10:32:59;92932.31;;;13.83;50.16
24610;BME280;77159;47.890;11.694;2024-03-25T10:35:27;92925.34;;;13.85;51.15
24610;BME280;77159;47.890;11.694;2024-03-25T10:37:57;92915.25;;;13.89;50.16
24610;BME280;77159;47.890;11.694;2024-03-25T10:40:28;92913.75;;;13.95;50.30
24610;BME280;77159;47.890;11.694;2024-03-25T10:43:02;92911.84;;;13.99;50.17
24610;BME280;77159;47.890;11.694;2024-03-25T10:45:30;92904.50;;;14.04;49.47
24610;BME280;77159;47.890;11.694;2024-03-25T10:48:11;92911.56;;;14.08;49.82
24610;BME280;77159;47.890;11.694;2024-03-25T10:50:39;92905.34;;;14.11;49.83
24610;BME280;77159;47.890;11.694;2024-03-25T10:53:08;92898.38;;;14.14;49.73
24610;BME280;77159;47.890;11.694;2024-03-25T10:55:37;92898.41;;;14.17;49.51
24610;BME280;77159;47.890;11.694;2024-03-25T10:58:04;92889.91;;;14.23;49.91
24610;BME280;77159;47.890;11.694;2024-03-25T11:00:31;92890.72;;;14.27;50.24
24610;BME280;77159;47.890;11.694;2024-03-25T11:02:58;92893.91;;;14.32;50.08
24610;BME280;77159;47.890;11.694;2024-03-25T11:05:25;92890.41;;;14.35;49.20
24610;BME280;77159;47.890;11.694;2024-03-25T11:07:51;92884.56;;;14.37;49.20
24610;BME280;77159;47.890;11.694;2024-03-25T11:10:18;92884.59;;;14.40;49.04
24610;BME280;77159;47.890;11.694;2024-03-25T11:12:44;92873.66;;;14.40;49.22
24610;BME280;77159;47.890;11.694;2024-03-25T11:15:11;92871.38;;;14.42;48.49
24610;BME280;77159;47.890;11.694;2024-03-25T11:17:37;92869.44;;;14.47;48.60
24610;BME280;77159;47.890;11.694;2024-03-25T11:20:16;92863.69;;;14.52;48.61
24610;BME280;77159;47.890;11.694;2024-03-25T11:22:49;92855.13;;;14.57;48.11
24610;BME280;77159;47.890;11.694;2024-03-25T11:25:15;92857.09;;;14.60;47.54
24610;BME280;77159;47.890;11.694;2024-03-25T11:27:44;92841.13;;;14.62;47.13
24610;BME280;77159;47.890;11.694;2024-03-25T11:30:10;92842.69;;;14.63;47.67
24610;BME280;77159;47.890;11.694;2024-03-25T11:32:47;92843.53;;;14.67;47.07
24610;BME280;77159;47.890;11.694;2024-03-25T11:35:17;92840.78;;;14.67;46.72
24610;BME280;77159;47.890;11.694;2024-03-25T11:37:43;92835.34;;;14.71;47.27
24610;BME280;77159;47.890;11.694;2024-03-25T11:40:11;92828.72;;;14.75;46.71
24610;BME280;77159;47.890;11.694;2024-03-25T11:42:40;92825.25;;;14.78;46.75
24610;BME280;77159;47.890;11.694;2024-03-25T11:45:13;92823.31;;;14.82;46.28
24610;BME280;77159;47.890;11.694;2024-03-25T11:47:42;92819.44;;;14.83;45.93
24610;BME280;77159;47.890;11.694;2024-03-25T11:50:11;92817.88;;;14.86;46.07
24610;BME280;77159;47.890;11.694;2024-03-25T11:52:37;92805.41;;;14.88;45.86
24610;BME280;77159;47.890;11.694;2024-03-25T11:55:04;92805.41;;;14.92;45.61
24610;BME280;77159;47.890;11.694;2024-03-25T11:57:31;92810.91;;;14.96;45.57
24610;BME280;77159;47.890;11.694;2024-03-25T11:59:58;92807.41;;;14.99;45.43
24610;BME280;77159;47.890;11.694;2024-03-25T12:02:25;92804.69;;;15.02;44.66
24610;BME280;77159;47.890;11.694;2024-03-25T12:04:51;92798.47;;;15.05;44.69
24610;BME280;77159;47.890;11.694;2024-03-25T12:07:17;92793.06;;;15.09;45.03
24610;BME280;77159;47.890;11.694;2024-03-25T12:09:43;92781.34;;;15.12;45.43
24610;BME280;77159;47.890;11.694;2024-03-25T12:12:28;92777.44;;;15.13;45.56
24610;BME280;77159;47.890;11.694;2024-03-25T12:14:56;92775.91;;;15.16;45.93
24610;BME280;77159;47.890;11.694;2024-03-25T12:17:22;92778.22;;;15.17;46.22
24610;BME280;77159;47.890;11.694;2024-03-25T12:20:01;92769.28;;;15.20;45.50
24610;BME280;77159;47.890;11.694;2024-03-25T12:22:30;92764.97;;;15.19;45.18
24610;BME280;77159;47.890;11.694;2024-03-25T12:24:58;92754.03;;;15.19;44.77
24610;BME280;77159;47.890;11.694;2024-03-25T12:27:25;92754.03;;;15.19;44.50
24610;BME280;77159;47.890;11.694;2024-03-25T12:29:58;92746.22;;;15.21;43.95
24610;BME280;77159;47.890;11.694;2024-03-25T12:32:36;92743.50;;;15.21;43.66
24610;BME280;77159;47.890;11.694;2024-03-25T12:35:06;92736.09;;;15.22;43.38
24610;BME280;77159;47.890;11.694;2024-03-25T12:37:33;92729.06;;;15.24;43.14
24610;BME280;77159;47.890;11.694;2024-03-25T12:39:58;92724.00;;;15.26;43.14
24610;BME280;77159;47.890;11.694;2024-03-25T12:42:25;92731.44;;;15.29;43.41
24610;BME280;77159;47.890;11.694;2024-03-25T12:44:52;92725.97;;;15.33;43.94
24610;BME280;77159;47.890;11.694;2024-03-25T12:47:18;92715.03;;;15.36;44.76
24610;BME280;77159;47.890;11.694;2024-03-25T12:49:45;92718.19;;;15.38;44.54